General Aviation Weather

Text Reports

Enter one or more of the following location identifiers separated by a space:

Zip Code, Four-Character ICAO or Three-Character IATA airport codes.

METAR - Aviation Routine Weather Report
KIWI - Wiscasset, Maine
Updated at 6:53 AM GMT on September 16, 2014 (2:53 AM EDT):
METAR KIWI 160653Z AUTO 00000KT 10SM FEW055 BKN090 OVC110 10/09 A3008 RMK AO2 SLP184 T01000089
TAF - Terminal Area Forecast
KIWI - Wiscasset, Maine
Updated at 6:53 AM GMT on September 16, 2014 (2:53 AM EDT):
No TAF is currently available for this location.
Decoded:
No decoded TAF is available.
PIREP - Pilot Weather Report
KIWI - Wiscasset, Maine
Updated at 6:53 AM GMT on September 16, 2014 (2:53 AM EDT):
No PIREP is currently available for this location.
AIRMET - Airmens Meteorological Information
KIWI - Wiscasset, Maine
Updated at 6:53 AM GMT on September 16, 2014 (2:53 AM EDT):
No AIRMET is currently available for this location.
SIGMET - Significant Meteorological Information
KIWI - Wiscasset, Maine
Updated at 6:53 AM GMT on September 16, 2014 (2:53 AM EDT):
No SIGMET is currently available for this location.
NOTAM - Notice to Airmen
KIWI - Wiscasset, Maine
Updated at 6:53 AM GMT on September 16, 2014 (2:53 AM EDT):
No NOTAM is currently available for this location.
Forecast Area
KIWI - Wiscasset, Maine
Updated at 6:53 AM GMT on September 16, 2014 (2:53 AM EDT):
No NOTAM is currently available for this location.
Aviation Weather Maps